sensor_id;sensor_type;location;lat;lon;timestamp;pressure;altitude;pressure_sealevel;temperature
19282;BMP180;9774;52.034;5.342;2022-10-30T00:01:06;101497.00;;;20.60
19282;BMP180;9774;52.034;5.342;2022-10-30T00:03:33;101490.00;;;20.60
19282;BMP180;9774;52.034;5.342;2022-10-30T00:06:04;101494.00;;;20.50
19282;BMP180;9774;52.034;5.342;2022-10-30T00:08:32;101499.00;;;20.50
19282;BMP180;9774;52.034;5.342;2022-10-30T00:11:06;101494.00;;;20.40
19282;BMP180;9774;52.034;5.342;2022-10-30T00:13:34;101495.00;;;20.50
19282;BMP180;9774;52.034;5.342;2022-10-30T00:16:03;101502.00;;;20.40
19282;BMP180;9774;52.034;5.342;2022-10-30T00:18:31;101506.00;;;20.40
19282;BMP180;9774;52.034;5.342;2022-10-30T00:21:05;101508.00;;;20.40
19282;BMP180;9774;52.034;5.342;2022-10-30T00:23:32;101501.00;;;20.40
19282;BMP180;9774;52.034;5.342;2022-10-30T00:26:02;101500.00;;;20.30
19282;BMP180;9774;52.034;5.342;2022-10-30T00:28:31;101495.00;;;20.30
19282;BMP180;9774;52.034;5.342;2022-10-30T00:30:59;101496.00;;;20.30
19282;BMP180;9774;52.034;5.342;2022-10-30T00:33:27;101493.00;;;20.30
19282;BMP180;9774;52.034;5.342;2022-10-30T00:35:54;101489.00;;;20.30
19282;BMP180;9774;52.034;5.342;2022-10-30T00:38:21;101492.00;;;20.30
19282;BMP180;9774;52.034;5.342;2022-10-30T00:40:49;101488.00;;;20.20
19282;BMP180;9774;52.034;5.342;2022-10-30T00:43:32;101492.00;;;20.10
19282;BMP180;9774;52.034;5.342;2022-10-30T00:46:04;101486.00;;;20.20
19282;BMP180;9774;52.034;5.342;2022-10-30T00:48:32;101485.00;;;20.20
19282;BMP180;9774;52.034;5.342;2022-10-30T00:51:01;101483.00;;;20.10
19282;BMP180;9774;52.034;5.342;2022-10-30T00:53:29;101489.00;;;20.10
19282;BMP180;9774;52.034;5.342;2022-10-30T00:55:59;101482.00;;;20.10
19282;BMP180;9774;52.034;5.342;2022-10-30T00:58:30;101492.00;;;20.10
19282;BMP180;9774;52.034;5.342;2022-10-30T01:01:02;101492.00;;;20.10
19282;BMP180;9774;52.034;5.342;2022-10-30T01:03:31;101495.00;;;20.10
19282;BMP180;9774;52.034;5.342;2022-10-30T01:06:03;101494.00;;;20.00
19282;BMP180;9774;52.034;5.342;2022-10-30T01:08:33;101494.00;;;20.00
19282;BMP180;9774;52.034;5.342;2022-10-30T01:11:02;101496.00;;;20.00
19282;BMP180;9774;52.034;5.342;2022-10-30T01:13:30;101495.00;;;20.00
19282;BMP180;9774;52.034;5.342;2022-10-30T01:16:13;101491.00;;;19.90
19282;BMP180;9774;52.034;5.342;2022-10-30T01:18:51;101495.00;;;19.90
19282;BMP180;9774;52.034;5.342;2022-10-30T01:21:33;101495.00;;;19.80
19282;BMP180;9774;52.034;5.342;2022-10-30T01:24:15;101500.00;;;19.80
19282;BMP180;9774;52.034;5.342;2022-10-30T01:26:50;101500.00;;;19.90
19282;BMP180;9774;52.034;5.342;2022-10-30T01:29:30;101490.00;;;19.80
19282;BMP180;9774;52.034;5.342;2022-10-30T01:32:22;101486.00;;;19.80
19282;BMP180;9774;52.034;5.342;2022-10-30T01:34:58;101500.00;;;19.80
19282;BMP180;9774;52.034;5.342;2022-10-30T01:37:31;101500.00;;;19.80
19282;BMP180;9774;52.034;5.342;2022-10-30T01:40:05;101511.00;;;19.80
19282;BMP180;9774;52.034;5.342;2022-10-30T01:42:49;101507.00;;;19.70
19282;BMP180;9774;52.034;5.342;2022-10-30T01:45:22;101512.00;;;19.70
19282;BMP180;9774;52.034;5.342;2022-10-30T01:48:04;101515.00;;;19.70
19282;BMP180;9774;52.034;5.342;2022-10-30T01:50:38;101511.00;;;19.70
19282;BMP180;9774;52.034;5.342;2022-10-30T01:53:15;101513.00;;;19.60
19282;BMP180;9774;52.034;5.342;2022-10-30T01:55:52;101509.00;;;19.60
19282;BMP180;9774;52.034;5.342;2022-10-30T01:58:27;101514.00;;;19.70
19282;BMP180;9774;52.034;5.342;2022-10-30T02:00:58;101512.00;;;19.60
19282;BMP180;9774;52.034;5.342;2022-10-30T02:03:28;101518.00;;;19.60
19282;BMP180;9774;52.034;5.342;2022-10-30T02:05:55;101523.00;;;19.60
19282;BMP180;9774;52.034;5.342;2022-10-30T02:08:22;101519.00;;;19.60
19282;BMP180;9774;52.034;5.342;2022-10-30T02:10:51;101515.00;;;19.60
19282;BMP180;9774;52.034;5.342;2022-10-30T02:13:20;101511.00;;;19.60
19282;BMP180;9774;52.034;5.342;2022-10-30T02:15:48;101508.00;;;19.50
19282;BMP180;9774;52.034;5.342;2022-10-30T02:18:17;101509.00;;;19.50
19282;BMP180;9774;52.034;5.342;2022-10-30T02:20:45;101509.00;;;19.50
19282;BMP180;9774;52.034;5.342;2022-10-30T02:23:13;101506.00;;;19.50
19282;BMP180;9774;52.034;5.342;2022-10-30T02:25:44;101516.00;;;19.40
19282;BMP180;9774;52.034;5.342;2022-10-30T02:28:11;101514.00;;;19.40
19282;BMP180;9774;52.034;5.342;2022-10-30T02:30:39;101509.00;;;19.40
19282;BMP180;9774;52.034;5.342;2022-10-30T02:33:09;101502.00;;;19.40
19282;BMP180;9774;52.034;5.342;2022-10-30T02:35:36;101515.00;;;19.40
19282;BMP180;9774;52.034;5.342;2022-10-30T02:38:05;101514.00;;;19.40
19282;BMP180;9774;52.034;5.342;2022-10-30T02:40:32;101507.00;;;19.40
19282;BMP180;9774;52.034;5.342;2022-10-30T02:42:59;101511.00;;;19.30
19282;BMP180;9774;52.034;5.342;2022-10-30T02:45:27;101506.00;;;19.30
19282;BMP180;9774;52.034;5.342;2022-10-30T02:47:54;101512.00;;;19.30
19282;BMP180;9774;52.034;5.342;2022-10-30T02:50:21;101507.00;;;19.30
19282;BMP180;9774;52.034;5.342;2022-10-30T02:52:48;101513.00;;;19.30
19282;BMP180;9774;52.034;5.342;2022-10-30T02:55:17;101517.00;;;19.20
19282;BMP180;9774;52.034;5.342;2022-10-30T02:57:44;101519.00;;;19.20
19282;BMP180;9774;52.034;5.342;2022-10-30T03:00:13;101518.00;;;19.20
19282;BMP180;9774;52.034;5.342;2022-10-30T03:02:40;101514.00;;;19.20
19282;BMP180;9774;52.034;5.342;2022-10-30T03:05:08;101515.00;;;19.20
19282;BMP180;9774;52.034;5.342;2022-10-30T03:07:35;101516.00;;;19.20
19282;BMP180;9774;52.034;5.342;2022-10-30T03:10:03;101517.00;;;19.20
19282;BMP180;9774;52.034;5.342;2022-10-30T03:12:32;101519.00;;;19.10
19282;BMP180;9774;52.034;5.342;2022-10-30T03:14:59;101519.00;;;19.20
19282;BMP180;9774;52.034;5.342;2022-10-30T03:17:26;101515.00;;;19.20
19282;BMP180;9774;52.034;5.342;2022-10-30T03:19:53;101508.00;;;19.20
19282;BMP180;9774;52.034;5.342;2022-10-30T03:22:21;101524.00;;;19.10
19282;BMP180;9774;52.034;5.342;2022-10-30T03:24:48;101524.00;;;19.10
19282;BMP180;9774;52.034;5.342;2022-10-30T03:27:15;101528.00;;;19.10
19282;BMP180;9774;52.034;5.342;2022-10-30T03:29:44;101521.00;;;19.10
19282;BMP180;9774;52.034;5.342;2022-10-30T03:32:11;101525.00;;;19.10
19282;BMP180;9774;52.034;5.342;2022-10-30T03:34:39;101533.00;;;19.10
19282;BMP180;9774;52.034;5.342;2022-10-30T03:37:06;101528.00;;;19.10
19282;BMP180;9774;52.034;5.342;2022-10-30T03:39:33;101529.00;;;19.10
19282;BMP180;9774;52.034;5.342;2022-10-30T03:42:01;101535.00;;;19.10
19282;BMP180;9774;52.034;5.342;2022-10-30T03:44:28;101533.00;;;19.00
19282;BMP180;9774;52.034;5.342;2022-10-30T03:46:57;101534.00;;;19.00
19282;BMP180;9774;52.034;5.342;2022-10-30T03:49:24;101534.00;;;19.00
19282;BMP180;9774;52.034;5.342;2022-10-30T03:51:52;101530.00;;;19.00
19282;BMP180;9774;52.034;5.342;2022-10-30T03:54:19;101533.00;;;19.00
19282;BMP180;9774;52.034;5.342;2022-10-30T03:56:47;101536.00;;;19.00
19282;BMP180;9774;52.034;5.342;2022-10-30T03:59:16;101532.00;;;19.00
19282;BMP180;9774;52.034;5.342;2022-10-30T04:01:43;101531.00;;;19.00
19282;BMP180;9774;52.034;5.342;2022-10-30T04:04:12;101530.00;;;19.00
19282;BMP180;9774;52.034;5.342;2022-10-30T04:06:39;101527.00;;;18.90
19282;BMP180;9774;52.034;5.342;2022-10-30T04:09:07;101520.00;;;18.90
19282;BMP180;9774;52.034;5.342;2022-10-30T04:11:34;101522.00;;;18.90
19282;BMP180;9774;52.034;5.342;2022-10-30T04:14:01;101533.00;;;18.90
19282;BMP180;9774;52.034;5.342;2022-10-30T04:16:28;101530.00;;;18.90
19282;BMP180;9774;52.034;5.342;2022-10-30T04:18:56;101535.00;;;18.90
19282;BMP180;9774;52.034;5.342;2022-10-30T04:21:24;101521.00;;;18.90
19282;BMP180;9774;52.034;5.342;2022-10-30T04:23:52;101520.00;;;18.90
19282;BMP180;9774;52.034;5.342;2022-10-30T04:26:19;101516.00;;;18.90
19282;BMP180;9774;52.034;5.342;2022-10-30T04:28:47;101513.00;;;18.90
19282;BMP180;9774;52.034;5.342;2022-10-30T04:31:14;101518.00;;;18.90
19282;BMP180;9774;52.034;5.342;2022-10-30T04:33:41;101512.00;;;18.90
19282;BMP180;9774;52.034;5.342;2022-10-30T04:36:09;101528.00;;;18.90
19282;BMP180;9774;52.034;5.342;2022-10-30T04:38:37;101524.00;;;18.90
19282;BMP180;9774;52.034;5.342;2022-10-30T04:41:05;101511.00;;;18.90
19282;BMP180;9774;52.034;5.342;2022-10-30T04:43:32;101509.00;;;18.90
19282;BMP180;9774;52.034;5.342;2022-10-30T04:46:02;101517.00;;;18.90
19282;BMP180;9774;52.034;5.342;2022-10-30T04:48:30;101516.00;;;18.90
19282;BMP180;9774;52.034;5.342;2022-10-30T04:51:00;101515.00;;;18.90
19282;BMP180;9774;52.034;5.342;2022-10-30T04:53:27;101516.00;;;18.80
19282;BMP180;9774;52.034;5.342;2022-10-30T04:55:55;101522.00;;;18.80
19282;BMP180;9774;52.034;5.342;2022-10-30T04:58:23;101517.00;;;18.80
19282;BMP180;9774;52.034;5.342;2022-10-30T05:00:50;101515.00;;;18.80
19282;BMP180;9774;52.034;5.342;2022-10-30T05:03:18;101523.00;;;18.80
19282;BMP180;9774;52.034;5.342;2022-10-30T05:05:47;101521.00;;;18.80
19282;BMP180;9774;52.034;5.342;2022-10-30T05:08:14;101527.00;;;18.80
19282;BMP180;9774;52.034;5.342;2022-10-30T05:10:42;101526.00;;;18.80
19282;BMP180;9774;52.034;5.342;2022-10-30T05:13:11;101531.00;;;18.70
19282;BMP180;9774;52.034;5.342;2022-10-30T05:15:38;101531.00;;;18.70
19282;BMP180;9774;52.034;5.342;2022-10-30T05:18:05;101532.00;;;18.70
19282;BMP180;9774;52.034;5.342;2022-10-30T05:20:33;101533.00;;;18.70
19282;BMP180;9774;52.034;5.342;2022-10-30T05:23:00;101524.00;;;18.70
19282;BMP180;9774;52.034;5.342;2022-10-30T05:25:27;101528.00;;;18.70
19282;BMP180;9774;52.034;5.342;2022-10-30T05:27:58;101520.00;;;18.60
19282;BMP180;9774;52.034;5.342;2022-10-30T05:30:28;101521.00;;;18.70
19282;BMP180;9774;52.034;5.342;2022-10-30T05:32:59;101520.00;;;18.60
19282;BMP180;9774;52.034;5.342;2022-10-30T05:35:28;101524.00;;;18.60
19282;BMP180;9774;52.034;5.342;2022-10-30T05:37:57;101522.00;;;18.60
19282;BMP180;9774;52.034;5.342;2022-10-30T05:40:25;101523.00;;;18.60
19282;BMP180;9774;52.034;5.342;2022-10-30T05:42:52;101523.00;;;18.60
19282;BMP180;9774;52.034;5.342;2022-10-30T05:45:20;101520.00;;;18.60
19282;BMP180;9774;52.034;5.342;2022-10-30T05:47:55;101518.00;;;18.50
19282;BMP180;9774;52.034;5.342;2022-10-30T05:50:22;101525.00;;;18.60
19282;BMP180;9774;52.034;5.342;2022-10-30T05:52:53;101513.00;;;18.60
19282;BMP180;9774;52.034;5.342;2022-10-30T05:55:20;101509.00;;;18.60
19282;BMP180;9774;52.034;5.342;2022-10-30T05:57:47;101507.00;;;18.60
19282;BMP180;9774;52.034;5.342;2022-10-30T06:00:15;101507.00;;;18.50
19282;BMP180;9774;52.034;5.342;2022-10-30T06:02:42;101510.00;;;18.50
19282;BMP180;9774;52.034;5.342;2022-10-30T06:05:11;101506.00;;;18.50
19282;BMP180;9774;52.034;5.342;2022-10-30T06:07:38;101508.00;;;18.50
19282;BMP180;9774;52.034;5.342;2022-10-30T06:10:06;101497.00;;;18.50
19282;BMP180;9774;52.034;5.342;2022-10-30T06:12:34;101506.00;;;18.50
19282;BMP180;9774;52.034;5.342;2022-10-30T06:15:01;101495.00;;;18.50
19282;BMP180;9774;52.034;5.342;2022-10-30T06:17:29;101501.00;;;18.50
19282;BMP180;9774;52.034;5.342;2022-10-30T06:19:57;101501.00;;;18.50
19282;BMP180;9774;52.034;5.342;2022-10-30T06:22:25;101514.00;;;18.50
19282;BMP180;9774;52.034;5.342;2022-10-30T06:24:53;101520.00;;;18.50
19282;BMP180;9774;52.034;5.342;2022-10-30T06:27:20;101526.00;;;18.50
19282;BMP180;9774;52.034;5.342;2022-10-30T06:29:47;101532.00;;;18.50
19282;BMP180;9774;52.034;5.342;2022-10-30T06:32:15;101531.00;;;18.50
19282;BMP180;9774;52.034;5.342;2022-10-30T06:34:43;101518.00;;;18.50
19282;BMP180;9774;52.034;5.342;2022-10-30T06:37:10;101520.00;;;18.50
19282;BMP180;9774;52.034;5.342;2022-10-30T06:39:39;101514.00;;;18.50
19282;BMP180;9774;52.034;5.342;2022-10-30T06:42:07;101510.00;;;18.50
19282;BMP180;9774;52.034;5.342;2022-10-30T06:44:36;101514.00;;;18.50
19282;BMP180;9774;52.034;5.342;2022-10-30T06:47:03;101517.00;;;18.50
19282;BMP180;9774;52.034;5.342;2022-10-30T06:49:30;101515.00;;;18.50
19282;BMP180;9774;52.034;5.342;2022-10-30T06:51:58;101519.00;;;18.50
19282;BMP180;9774;52.034;5.342;2022-10-30T06:54:25;101523.00;;;18.50
19282;BMP180;9774;52.034;5.342;2022-10-30T06:56:53;101528.00;;;18.50
19282;BMP180;9774;52.034;5.342;2022-10-30T06:59:21;101528.00;;;18.50
19282;BMP180;9774;52.034;5.342;2022-10-30T07:01:48;101537.00;;;18.50
19282;BMP180;9774;52.034;5.342;2022-10-30T07:04:15;101531.00;;;18.50
19282;BMP180;9774;52.034;5.342;2022-10-30T07:06:43;101535.00;;;18.50
19282;BMP180;9774;52.034;5.342;2022-10-30T07:09:10;101525.00;;;18.50
19282;BMP180;9774;52.034;5.342;2022-10-30T07:11:37;101523.00;;;18.50
19282;BMP180;9774;52.034;5.342;2022-10-30T07:14:12;101526.00;;;18.50
19282;BMP180;9774;52.034;5.342;2022-10-30T07:16:39;101525.00;;;18.50
19282;BMP180;9774;52.034;5.342;2022-10-30T07:19:06;101520.00;;;18.60
19282;BMP180;9774;52.034;5.342;2022-10-30T07:21:33;101526.00;;;18.60
19282;BMP180;9774;52.034;5.342;2022-10-30T07:24:01;101529.00;;;18.60
19282;BMP180;9774;52.034;5.342;2022-10-30T07:26:28;101536.00;;;18.60
19282;BMP180;9774;52.034;5.342;2022-10-30T07:28:55;101535.00;;;18.60
19282;BMP180;9774;52.034;5.342;2022-10-30T07:31:24;101526.00;;;18.60
19282;BMP180;9774;52.034;5.342;2022-10-30T07:33:51;101523.00;;;18.60
19282;BMP180;9774;52.034;5.342;2022-10-30T07:36:18;101521.00;;;18.70
19282;BMP180;9774;52.034;5.342;2022-10-30T07:38:47;101521.00;;;18.70
19282;BMP180;9774;52.034;5.342;2022-10-30T07:41:16;101521.00;;;18.80
19282;BMP180;9774;52.034;5.342;2022-10-30T07:43:44;101511.00;;;18.80
19282;BMP180;9774;52.034;5.342;2022-10-30T07:46:12;101508.00;;;18.80
19282;BMP180;9774;52.034;5.342;2022-10-30T07:48:40;101514.00;;;18.90
19282;BMP180;9774;52.034;5.342;2022-10-30T07:51:08;101512.00;;;18.90
19282;BMP180;9774;52.034;5.342;2022-10-30T07:53:35;101505.00;;;19.00
19282;BMP180;9774;52.034;5.342;2022-10-30T07:56:02;101510.00;;;19.00
19282;BMP180;9774;52.034;5.342;2022-10-30T07:58:30;101506.00;;;19.10
19282;BMP180;9774;52.034;5.342;2022-10-30T08:00:57;101512.00;;;19.20
19282;BMP180;9774;52.034;5.342;2022-10-30T08:03:24;101512.00;;;19.20
19282;BMP180;9774;52.034;5.342;2022-10-30T08:05:53;101520.00;;;19.30
19282;BMP180;9774;52.034;5.342;2022-10-30T08:08:20;101519.00;;;19.40
19282;BMP180;9774;52.034;5.342;2022-10-30T08:10:47;101521.00;;;19.40
19282;BMP180;9774;52.034;5.342;2022-10-30T08:13:15;101517.00;;;19.50
19282;BMP180;9774;52.034;5.342;2022-10-30T08:15:43;101525.00;;;19.60
19282;BMP180;9774;52.034;5.342;2022-10-30T08:18:10;101520.00;;;19.70
19282;BMP180;9774;52.034;5.342;2022-10-30T08:20:37;101519.00;;;19.80
19282;BMP180;9774;52.034;5.342;2022-10-30T08:23:07;101522.00;;;19.80
19282;BMP180;9774;52.034;5.342;2022-10-30T08:25:34;101513.00;;;19.90
19282;BMP180;9774;52.034;5.342;2022-10-30T08:28:03;101513.00;;;20.00
19282;BMP180;9774;52.034;5.342;2022-10-30T08:30:33;101519.00;;;20.10
19282;BMP180;9774;52.034;5.342;2022-10-30T08:33:02;101518.00;;;20.20
19282;BMP180;9774;52.034;5.342;2022-10-30T08:35:29;101512.00;;;20.30
19282;BMP180;9774;52.034;5.342;2022-10-30T08:37:58;101522.00;;;20.30
19282;BMP180;9774;52.034;5.342;2022-10-30T08:40:27;101524.00;;;20.40
19282;BMP180;9774;52.034;5.342;2022-10-30T08:42:55;101519.00;;;20.50
19282;BMP180;9774;52.034;5.342;2022-10-30T08:45:23;101512.00;;;20.60
19282;BMP180;9774;52.034;5.342;2022-10-30T08:47:56;101516.00;;;20.70
19282;BMP180;9774;52.034;5.342;2022-10-30T08:50:23;101521.00;;;20.80
19282;BMP180;9774;52.034;5.342;2022-10-30T08:52:51;101524.00;;;20.90
19282;BMP180;9774;52.034;5.342;2022-10-30T08:55:18;101526.00;;;21.00
19282;BMP180;9774;52.034;5.342;2022-10-30T08:57:47;101520.00;;;21.10
19282;BMP180;9774;52.034;5.342;2022-10-30T09:00:14;101520.00;;;21.10
19282;BMP180;9774;52.034;5.342;2022-10-30T09:02:42;101520.00;;;21.20
19282;BMP180;9774;52.034;5.342;2022-10-30T09:05:10;101522.00;;;21.30
19282;BMP180;9774;52.034;5.342;2022-10-30T09:07:37;101528.00;;;21.40
19282;BMP180;9774;52.034;5.342;2022-10-30T09:10:05;101523.00;;;21.40
19282;BMP180;9774;52.034;5.342;2022-10-30T09:12:33;101518.00;;;21.50
19282;BMP180;9774;52.034;5.342;2022-10-30T09:15:02;101518.00;;;21.60
19282;BMP180;9774;52.034;5.342;2022-10-30T09:17:29;101514.00;;;21.70
19282;BMP180;9774;52.034;5.342;2022-10-30T09:19:57;101510.00;;;21.80
19282;BMP180;9774;52.034;5.342;2022-10-30T09:22:24;101509.00;;;21.90
19282;BMP180;9774;52.034;5.342;2022-10-30T09:24:51;101501.00;;;22.00
19282;BMP180;9774;52.034;5.342;2022-10-30T09:27:18;101497.00;;;22.00
19282;BMP180;9774;52.034;5.342;2022-10-30T09:29:46;101507.00;;;22.10
19282;BMP180;9774;52.034;5.342;2022-10-30T09:32:14;101510.00;;;22.20
19282;BMP180;9774;52.034;5.342;2022-10-30T09:34:42;101509.00;;;22.30
19282;BMP180;9774;52.034;5.342;2022-10-30T09:37:09;101515.00;;;22.40
19282;BMP180;9774;52.034;5.342;2022-10-30T09:39:36;101522.00;;;22.50
19282;BMP180;9774;52.034;5.342;2022-10-30T09:42:25;101530.00;;;22.50
19282;BMP180;9774;52.034;5.342;2022-10-30T09:45:08;101536.00;;;22.60
19282;BMP180;9774;52.034;5.342;2022-10-30T09:47:43;101531.00;;;22.60
19282;BMP180;9774;52.034;5.342;2022-10-30T09:50:23;101531.00;;;22.70
19282;BMP180;9774;52.034;5.342;2022-10-30T09:53:01;101533.00;;;22.70
19282;BMP180;9774;52.034;5.342;2022-10-30T09:55:35;101540.00;;;22.70
19282;BMP180;9774;52.034;5.342;2022-10-30T09:58:18;101539.00;;;22.70
19282;BMP180;9774;52.034;5.342;2022-10-30T10:00:51;101541.00;;;22.80
19282;BMP180;9774;52.034;5.342;2022-10-30T10:03:34;101543.00;;;22.80
19282;BMP180;9774;52.034;5.342;2022-10-30T10:06:08;101538.00;;;22.90
19282;BMP180;9774;52.034;5.342;2022-10-30T10:08:40;101538.00;;;23.00
19282;BMP180;9774;52.034;5.342;2022-10-30T10:11:14;101532.00;;;23.10
19282;BMP180;9774;52.034;5.342;2022-10-30T10:13:46;101537.00;;;23.20
19282;BMP180;9774;52.034;5.342;2022-10-30T10:16:17;101528.00;;;23.30
19282;BMP180;9774;52.034;5.342;2022-10-30T10:18:49;101533.00;;;23.40
19282;BMP180;9774;52.034;5.342;2022-10-30T10:21:24;101535.00;;;23.40
19282;BMP180;9774;52.034;5.342;2022-10-30T10:23:54;101535.00;;;23.50
19282;BMP180;9774;52.034;5.342;2022-10-30T10:26:28;101529.00;;;23.50
19282;BMP180;9774;52.034;5.342;2022-10-30T10:32:04;101540.00;;;23.70
19282;BMP180;9774;52.034;5.342;2022-10-30T10:34:52;101540.00;;;23.80
19282;BMP180;9774;52.034;5.342;2022-10-30T10:37:28;101542.00;;;23.90
19282;BMP180;9774;52.034;5.342;2022-10-30T10:40:18;101537.00;;;23.90
19282;BMP180;9774;52.034;5.342;2022-10-30T10:42:55;101538.00;;;24.10
19282;BMP180;9774;52.034;5.342;2022-10-30T10:45:32;101541.00;;;24.10
19282;BMP180;9774;52.034;5.342;2022-10-30T10:48:31;101542.00;;;24.20
19282;BMP180;9774;52.034;5.342;2022-10-30T10:51:03;101532.00;;;24.30
19282;BMP180;9774;52.034;5.342;2022-10-30T10:53:39;101531.00;;;24.40
19282;BMP180;9774;52.034;5.342;2022-10-30T10:56:10;101540.00;;;24.50
19282;BMP180;9774;52.034;5.342;2022-10-30T10:58:43;101537.00;;;24.60
19282;BMP180;9774;52.034;5.342;2022-10-30T11:01:14;101540.00;;;24.60
19282;BMP180;9774;52.034;5.342;2022-10-30T11:03:51;101532.00;;;24.70
19282;BMP180;9774;52.034;5.342;2022-10-30T11:06:25;101529.00;;;24.80
19282;BMP180;9774;52.034;5.342;2022-10-30T11:09:13;101517.00;;;24.80
19282;BMP180;9774;52.034;5.342;2022-10-30T11:11:41;101525.00;;;25.00
19282;BMP180;9774;52.034;5.342;2022-10-30T11:14:13;101514.00;;;25.00
19282;BMP180;9774;52.034;5.342;2022-10-30T11:16:50;101510.00;;;25.10
19282;BMP180;9774;52.034;5.342;2022-10-30T11:19:20;101508.00;;;25.20
19282;BMP180;9774;52.034;5.342;2022-10-30T11:21:51;101507.00;;;25.30
19282;BMP180;9774;52.034;5.342;2022-10-30T11:24:27;101508.00;;;25.40
19282;BMP180;9774;52.034;5.342;2022-10-30T11:26:56;101504.00;;;25.50
19282;BMP180;9774;52.034;5.342;2022-10-30T11:29:25;101496.00;;;25.60
19282;BMP180;9774;52.034;5.342;2022-10-30T11:32:01;101494.00;;;25.60
19282;BMP180;9774;52.034;5.342;2022-10-30T11:34:33;101494.00;;;25.70
19282;BMP180;9774;52.034;5.342;2022-10-30T11:37:03;101489.00;;;25.80
19282;BMP180;9774;52.034;5.342;2022-10-30T11:39:31;101495.00;;;25.90
19282;BMP180;9774;52.034;5.342;2022-10-30T11:42:02;101501.00;;;25.90
19282;BMP180;9774;52.034;5.342;2022-10-30T11:44:34;101497.00;;;25.90
19282;BMP180;9774;52.034;5.342;2022-10-30T11:47:03;101496.00;;;26.00
19282;BMP180;9774;52.034;5.342;2022-10-30T11:49:44;101495.00;;;25.90
19282;BMP180;9774;52.034;5.342;2022-10-30T11:52:17;101497.00;;;26.00
19282;BMP180;9774;52.034;5.342;2022-10-30T11:54:48;101494.00;;;26.10
19282;BMP180;9774;52.034;5.342;2022-10-30T11:57:23;101497.00;;;26.10
19282;BMP180;9774;52.034;5.342;2022-10-30T11:59:53;101491.00;;;26.10
19282;BMP180;9774;52.034;5.342;2022-10-30T12:02:26;101487.00;;;26.10
19282;BMP180;9774;52.034;5.342;2022-10-30T12:04:54;101475.00;;;26.10
19282;BMP180;9774;52.034;5.342;2022-10-30T12:07:28;101475.00;;;26.10
19282;BMP180;9774;52.034;5.342;2022-10-30T12:09:56;101478.00;;;26.10
19282;BMP180;9774;52.034;5.342;2022-10-30T12:12:28;101477.00;;;26.10
19282;BMP180;9774;52.034;5.342;2022-10-30T12:15:07;101479.00;;;26.00
19282;BMP180;9774;52.034;5.342;2022-10-30T12:17:37;101484.00;;;26.10
19282;BMP180;9774;52.034;5.342;2022-10-30T12:20:11;101481.00;;;26.10
19282;BMP180;9774;52.034;5.342;2022-10-30T12:22:40;101481.00;;;26.00
19282;BMP180;9774;52.034;5.342;2022-10-30T12:25:20;101481.00;;;25.90
19282;BMP180;9774;52.034;5.342;2022-10-30T12:27:48;101480.00;;;26.00
19282;BMP180;9774;52.034;5.342;2022-10-30T12:30:18;101477.00;;;26.00
19282;BMP180;9774;52.034;5.342;2022-10-30T12:32:50;101472.00;;;25.90
19282;BMP180;9774;52.034;5.342;2022-10-30T12:35:30;101473.00;;;25.90
19282;BMP180;9774;52.034;5.342;2022-10-30T12:38:02;101480.00;;;25.90
19282;BMP180;9774;52.034;5.342;2022-10-30T12:40:37;101479.00;;;25.80
19282;BMP180;9774;52.034;5.342;2022-10-30T12:43:19;101475.00;;;25.80
19282;BMP180;9774;52.034;5.342;2022-10-30T12:45:53;101480.00;;;25.80
19282;BMP180;9774;52.034;5.342;2022-10-30T12:48:26;101475.00;;;25.80
19282;BMP180;9774;52.034;5.342;2022-10-30T12:51:06;101468.00;;;25.80
19282;BMP180;9774;52.034;5.342;2022-10-30T12:53:42;101472.00;;;25.80
19282;BMP180;9774;52.034;5.342;2022-10-30T12:56:16;101463.00;;;25.80
19282;BMP180;9774;52.034;5.342;2022-10-30T12:58:47;101455.00;;;25.80
19282;BMP180;9774;52.034;5.342;2022-10-30T13:01:21;101455.00;;;25.80
19282;BMP180;9774;52.034;5.342;2022-10-30T13:03:56;101452.00;;;25.80
19282;BMP180;9774;52.034;5.342;2022-10-30T13:06:27;101449.00;;;25.90
19282;BMP180;9774;52.034;5.342;2022-10-30T13:09:04;101451.00;;;25.90
19282;BMP180;9774;52.034;5.342;2022-10-30T13:11:40;101453.00;;;25.90
19282;BMP180;9774;52.034;5.342;2022-10-30T13:14:13;101447.00;;;25.90
19282;BMP180;9774;52.034;5.342;2022-10-30T13:16:41;101444.00;;;26.00
19282;BMP180;9774;52.034;5.342;2022-10-30T13:19:11;101447.00;;;26.00
19282;BMP180;9774;52.034;5.342;2022-10-30T13:21:45;101448.00;;;26.00
19282;BMP180;9774;52.034;5.342;2022-10-30T13:24:19;101447.00;;;26.00
19282;BMP180;9774;52.034;5.342;2022-10-30T13:26:51;101446.00;;;26.10
19282;BMP180;9774;52.034;5.342;2022-10-30T13:29:24;101455.00;;;26.10
19282;BMP180;9774;52.034;5.342;2022-10-30T13:32:05;101463.00;;;26.00
19282;BMP180;9774;52.034;5.342;2022-10-30T13:34:43;101459.00;;;26.10
19282;BMP180;9774;52.034;5.342;2022-10-30T13:37:17;101458.00;;;26.10
19282;BMP180;9774;52.034;5.342;2022-10-30T13:40:04;101470.00;;;26.00
19282;BMP180;9774;52.034;5.342;2022-10-30T13:42:49;101460.00;;;26.10
19282;BMP180;9774;52.034;5.342;2022-10-30T13:45:37;101466.00;;;26.10
19282;BMP180;9774;52.034;5.342;2022-10-30T13:48:14;101463.00;;;26.20
19282;BMP180;9774;52.034;5.342;2022-10-30T13:51:01;101458.00;;;26.20
19282;BMP180;9774;52.034;5.342;2022-10-30T13:53:34;101453.00;;;26.30
19282;BMP180;9774;52.034;5.342;2022-10-30T13:56:04;101453.00;;;26.30
19282;BMP180;9774;52.034;5.342;2022-10-30T13:58:37;101452.00;;;26.20
19282;BMP180;9774;52.034;5.342;2022-10-30T14:01:08;101455.00;;;26.20
19282;BMP180;9774;52.034;5.342;2022-10-30T14:03:45;101462.00;;;26.20
19282;BMP180;9774;52.034;5.342;2022-10-30T14:06:22;101456.00;;;26.10
19282;BMP180;9774;52.034;5.342;2022-10-30T14:08:59;101468.00;;;26.10
19282;BMP180;9774;52.034;5.342;2022-10-30T14:11:30;101457.00;;;26.10
19282;BMP180;9774;52.034;5.342;2022-10-30T14:14:03;101462.00;;;26.00
19282;BMP180;9774;52.034;5.342;2022-10-30T14:16:34;101462.00;;;26.10
19282;BMP180;9774;52.034;5.342;2022-10-30T14:19:04;101455.00;;;26.10
19282;BMP180;9774;52.034;5.342;2022-10-30T14:21:41;101449.00;;;26.00
19282;BMP180;9774;52.034;5.342;2022-10-30T14:24:17;101448.00;;;26.00
19282;BMP180;9774;52.034;5.342;2022-10-30T14:26:51;101452.00;;;26.00
19282;BMP180;9774;52.034;5.342;2022-10-30T14:29:44;101442.00;;;25.90
19282;BMP180;9774;52.034;5.342;2022-10-30T14:32:49;101447.00;;;25.90